createdAt,value
2018-07-17T00:00:24.109Z,23.63
2018-07-17T00:02:53.857Z,23.50
2018-07-17T00:05:23.726Z,23.45
2018-07-17T00:07:53.597Z,23.41
2018-07-17T00:10:23.448Z,23.42
2018-07-17T00:12:53.314Z,23.38
2018-07-17T00:15:23.124Z,23.38
2018-07-17T00:17:52.936Z,23.32
2018-07-17T00:20:22.820Z,23.28
2018-07-17T00:22:52.612Z,23.23
2018-07-17T00:25:22.454Z,23.19
2018-07-17T00:27:52.283Z,23.17
2018-07-17T00:30:22.089Z,23.13
2018-07-17T00:32:51.875Z,23.10
2018-07-17T00:35:21.740Z,23.03
2018-07-17T00:37:51.608Z,22.99
2018-07-17T00:40:21.469Z,22.94
2018-07-17T00:42:51.273Z,22.90
2018-07-17T00:45:21.111Z,23.00
2018-07-17T00:47:50.913Z,22.95
2018-07-17T00:50:20.760Z,22.96
2018-07-17T00:52:50.599Z,23.00
2018-07-17T00:55:20.372Z,23.01
2018-07-17T00:57:50.185Z,23.02
2018-07-17T01:00:20.177Z,23.04
2018-07-17T01:02:55.049Z,22.98
2018-07-17T01:05:29.972Z,23.00
2018-07-17T01:08:04.935Z,22.96
2018-07-17T01:10:39.844Z,22.98
2018-07-17T01:13:13.570Z,22.94
2018-07-17T01:15:43.416Z,22.92
2018-07-17T01:18:13.220Z,22.93
2018-07-17T01:20:43.004Z,22.88
2018-07-17T01:23:12.831Z,22.74
2018-07-17T01:25:42.687Z,22.75
2018-07-17T01:28:12.512Z,22.69
2018-07-17T01:30:42.288Z,22.61
2018-07-17T01:33:12.111Z,22.63
2018-07-17T01:35:41.930Z,22.63
2018-07-17T01:38:11.725Z,22.59
2018-07-17T01:40:41.616Z,22.60
2018-07-17T01:43:11.449Z,22.62
2018-07-17T01:45:41.284Z,22.58
2018-07-17T01:48:11.084Z,22.59
2018-07-17T01:50:40.907Z,22.62
2018-07-17T01:53:10.724Z,22.61
2018-07-17T01:55:40.568Z,22.53
2018-07-17T01:58:10.450Z,22.58
2018-07-17T02:00:40.304Z,22.57
2018-07-17T02:03:10.147Z,22.64
2018-07-17T02:05:39.976Z,22.66
2018-07-17T02:08:09.755Z,22.69
2018-07-17T02:10:39.561Z,22.63
2018-07-17T02:13:09.352Z,22.60
2018-07-17T02:15:39.207Z,22.67
2018-07-17T02:18:08.995Z,22.54
2018-07-17T02:20:38.808Z,22.59
2018-07-17T02:23:08.606Z,22.61
2018-07-17T02:25:38.419Z,22.69
2018-07-17T02:28:08.224Z,22.59
2018-07-17T02:30:38.168Z,22.61
2018-07-17T02:33:07.968Z,22.62
2018-07-17T02:35:37.796Z,22.56
2018-07-17T02:38:07.620Z,22.58
2018-07-17T02:40:37.442Z,22.52
2018-07-17T02:43:07.346Z,22.54
2018-07-17T02:45:37.140Z,22.57
2018-07-17T02:48:06.988Z,22.63
2018-07-17T02:50:36.817Z,22.70
2018-07-17T02:53:06.697Z,22.73
2018-07-17T02:55:36.563Z,22.73
2018-07-17T02:58:06.453Z,22.76
2018-07-17T03:00:36.374Z,22.77
2018-07-17T03:03:06.232Z,22.80
2018-07-17T03:05:36.065Z,22.79
2018-07-17T03:08:05.848Z,22.76
2018-07-17T03:10:35.708Z,22.64
2018-07-17T03:13:05.508Z,22.51
2018-07-17T03:15:35.391Z,22.56
2018-07-17T03:18:05.256Z,22.53
2018-07-17T03:20:35.076Z,22.49
2018-07-17T03:23:04.884Z,22.52
2018-07-17T03:25:34.742Z,22.51
2018-07-17T03:28:04.565Z,22.50
2018-07-17T03:30:34.388Z,22.55
2018-07-17T03:33:04.292Z,22.65
2018-07-17T03:35:34.116Z,22.74
2018-07-17T03:38:03.964Z,22.76
2018-07-17T03:40:33.852Z,22.82
2018-07-17T03:43:03.712Z,22.82
2018-07-17T03:45:33.524Z,22.89
2018-07-17T03:48:03.311Z,22.90
2018-07-17T03:50:33.297Z,22.82
2018-07-17T03:53:03.104Z,22.88
2018-07-17T03:55:32.933Z,22.87
2018-07-17T03:58:02.818Z,22.90
2018-07-17T04:00:32.608Z,22.94
2018-07-17T04:03:02.433Z,23.07
2018-07-17T04:05:32.287Z,23.10
2018-07-17T04:08:02.096Z,23.23
2018-07-17T04:10:31.881Z,23.25
2018-07-17T04:13:01.691Z,23.16
2018-07-17T04:15:31.496Z,23.10
2018-07-17T04:18:01.323Z,23.19
2018-07-17T04:20:31.185Z,23.21
2018-07-17T04:23:01.008Z,23.26
2018-07-17T04:25:30.813Z,23.33
2018-07-17T04:28:00.665Z,23.41
2018-07-17T04:30:30.490Z,23.60
2018-07-17T04:33:00.321Z,23.77
2018-07-17T04:35:30.140Z,24.03
2018-07-17T04:37:59.972Z,24.30
2018-07-17T04:40:29.809Z,24.44
2018-07-17T04:42:59.671Z,24.60
2018-07-17T04:45:29.501Z,24.79
2018-07-17T04:47:59.320Z,24.90
2018-07-17T04:50:29.217Z,25.15
2018-07-17T04:52:58.988Z,25.43
2018-07-17T04:55:28.868Z,25.69
2018-07-17T04:57:58.802Z,25.69
2018-07-17T05:00:28.624Z,25.96
2018-07-17T05:02:58.429Z,26.12
2018-07-17T05:05:28.288Z,26.24
2018-07-17T05:07:58.065Z,26.32
2018-07-17T05:10:27.944Z,26.50
2018-07-17T05:12:57.841Z,26.44
2018-07-17T05:15:27.636Z,26.56
2018-07-17T05:17:57.432Z,26.82
2018-07-17T05:20:27.418Z,26.95
2018-07-17T05:22:57.450Z,27.25
2018-07-17T05:25:27.196Z,27.38
2018-07-17T05:27:57.040Z,27.51
2018-07-17T05:30:26.828Z,27.68
2018-07-17T05:32:56.668Z,27.96
2018-07-17T05:35:26.571Z,28.33
2018-07-17T05:37:56.476Z,28.05
2018-07-17T05:40:26.329Z,27.49
2018-07-17T05:42:56.318Z,28.13
2018-07-17T05:45:26.214Z,28.11
2018-07-17T05:47:56.056Z,28.36
2018-07-17T05:50:25.924Z,28.38
2018-07-17T05:52:55.796Z,28.59
2018-07-17T05:55:25.712Z,28.88
2018-07-17T05:57:55.513Z,29.19
2018-07-17T06:00:25.497Z,28.95
2018-07-17T06:02:55.320Z,28.93
2018-07-17T06:05:25.172Z,28.58
2018-07-17T06:07:54.967Z,29.15
2018-07-17T06:10:24.930Z,29.09
2018-07-17T06:12:54.715Z,29.08
2018-07-17T06:15:24.569Z,29.18
2018-07-17T06:17:54.448Z,29.20
2018-07-17T06:20:24.340Z,29.60
2018-07-17T06:22:54.180Z,29.68
2018-07-17T06:25:24.176Z,29.73
2018-07-17T06:27:53.995Z,29.57
2018-07-17T06:30:23.900Z,30.00
2018-07-17T06:32:53.845Z,30.22
2018-07-17T06:35:23.728Z,30.03
2018-07-17T06:37:53.587Z,30.20
2018-07-17T06:40:23.460Z,30.35
2018-07-17T06:42:53.364Z,30.33
2018-07-17T06:45:23.216Z,30.62
2018-07-17T06:47:53.080Z,30.54
2018-07-17T06:50:23.016Z,30.45
2018-07-17T06:52:52.985Z,30.47
2018-07-17T06:55:22.811Z,30.20
2018-07-17T06:57:52.980Z,30.34
2018-07-17T07:00:22.870Z,30.26
2018-07-17T07:02:52.724Z,30.58
2018-07-17T07:05:23.582Z,30.78
2018-07-17T07:07:53.420Z,30.93
2018-07-17T07:10:23.215Z,30.96
2018-07-17T07:12:53.170Z,31.04
2018-07-17T07:15:23.089Z,31.32
2018-07-17T07:17:53.144Z,31.37
2018-07-17T07:20:23.020Z,31.53
2018-07-17T07:22:52.964Z,31.56
2018-07-17T07:25:24.129Z,31.36
2018-07-17T07:27:54.070Z,31.34
2018-07-17T07:30:24.020Z,31.74
2018-07-17T07:32:53.892Z,31.91
2018-07-17T07:35:23.845Z,31.95
2018-07-17T07:37:53.776Z,31.97
2018-07-17T07:40:23.613Z,31.96
2018-07-17T07:42:53.553Z,32.10
2018-07-17T07:45:23.365Z,32.24
2018-07-17T07:47:53.746Z,32.03
2018-07-17T07:50:23.768Z,32.31
2018-07-17T07:52:54.488Z,32.34
2018-07-17T07:55:24.395Z,32.29
2018-07-17T07:57:54.496Z,32.30
2018-07-17T08:00:24.435Z,32.22
2018-07-17T08:02:54.267Z,32.16
2018-07-17T08:05:24.130Z,32.06
2018-07-17T08:07:54.021Z,31.91
2018-07-17T08:10:23.831Z,31.95
2018-07-17T08:12:53.604Z,31.93
2018-07-17T08:15:23.494Z,31.80
2018-07-17T08:17:53.399Z,31.83
2018-07-17T08:20:23.359Z,31.86
2018-07-17T08:22:53.208Z,31.69
2018-07-17T08:25:22.985Z,31.67
2018-07-17T08:27:53.438Z,31.79
2018-07-17T08:30:23.759Z,32.15
2018-07-17T08:32:53.597Z,32.13
2018-07-17T08:35:23.423Z,32.14
2018-07-17T08:37:53.309Z,31.92
2018-07-17T08:40:23.312Z,32.42
2018-07-17T08:42:53.304Z,32.62
2018-07-17T08:45:23.054Z,32.82
2018-07-17T08:47:52.895Z,33.07
2018-07-17T08:50:22.772Z,33.24
2018-07-17T08:52:53.536Z,33.28
2018-07-17T08:55:23.976Z,33.31
2018-07-17T08:57:53.923Z,33.34
2018-07-17T09:00:23.870Z,33.26
2018-07-17T09:02:53.675Z,33.07
2018-07-17T09:05:23.540Z,32.66
2018-07-17T09:07:53.300Z,32.90
2018-07-17T09:10:23.055Z,32.88
2018-07-17T09:12:52.867Z,32.75
2018-07-17T09:15:22.857Z,32.55
2018-07-17T09:17:52.590Z,32.69
2018-07-17T09:20:22.451Z,32.39
2018-07-17T09:22:52.208Z,32.38
2018-07-17T09:25:22.047Z,32.25
2018-07-17T09:27:51.812Z,31.96
2018-07-17T09:30:21.619Z,31.35
2018-07-17T09:32:51.342Z,30.64
2018-07-17T09:35:21.127Z,29.33
2018-07-17T09:37:50.934Z,28.38
2018-07-17T09:40:21.619Z,27.38
2018-07-17T09:42:51.548Z,27.47
2018-07-17T09:45:21.306Z,27.14
2018-07-17T09:47:51.211Z,26.67
2018-07-17T09:50:21.839Z,26.54
2018-07-17T09:52:51.639Z,26.21
2018-07-17T09:55:21.527Z,26.00
2018-07-17T09:57:51.353Z,25.86
2018-07-17T10:00:26.027Z,25.84
2018-07-17T10:02:56.009Z,25.69
2018-07-17T10:05:25.795Z,25.43
2018-07-17T10:07:55.620Z,25.32
2018-07-17T10:10:25.389Z,25.19
2018-07-17T10:12:55.216Z,25.07
2018-07-17T10:15:24.948Z,25.00
2018-07-17T10:17:54.709Z,24.84
2018-07-17T10:20:24.654Z,24.58
2018-07-17T10:22:54.331Z,24.59
2018-07-17T10:25:24.200Z,24.43
2018-07-17T10:27:53.972Z,24.42
2018-07-17T10:30:23.783Z,24.47
2018-07-17T10:32:53.615Z,24.52
2018-07-17T10:35:23.487Z,24.67
2018-07-17T10:37:53.388Z,24.76
2018-07-17T10:40:23.510Z,25.03
2018-07-17T10:42:53.324Z,25.15
2018-07-17T10:45:23.240Z,25.26
2018-07-17T10:47:53.175Z,25.54
2018-07-17T10:50:23.027Z,25.78
2018-07-17T10:52:52.927Z,26.05
2018-07-17T10:55:22.710Z,26.50
2018-07-17T10:57:52.579Z,26.87
2018-07-17T11:00:22.322Z,27.01
2018-07-17T11:02:52.105Z,27.20
2018-07-17T11:05:21.997Z,27.48
2018-07-17T11:07:51.775Z,27.76
2018-07-17T11:10:21.655Z,27.60
2018-07-17T11:12:51.467Z,28.25
2018-07-17T11:15:21.331Z,28.37
2018-07-17T11:17:51.131Z,28.62
2018-07-17T11:20:20.999Z,28.79
2018-07-17T11:22:50.830Z,29.05
2018-07-17T11:25:20.664Z,28.97
2018-07-17T11:27:50.606Z,29.10
2018-07-17T11:30:20.419Z,29.21
2018-07-17T11:32:50.242Z,29.15
2018-07-17T11:35:20.127Z,29.45
2018-07-17T11:37:50.025Z,29.68
2018-07-17T11:40:19.882Z,29.74
2018-07-17T11:42:49.675Z,29.83
2018-07-17T11:45:19.536Z,29.85
2018-07-17T11:47:49.466Z,29.89
2018-07-17T11:50:19.227Z,29.99
2018-07-17T11:52:49.196Z,29.98
2018-07-17T11:55:18.955Z,29.97
2018-07-17T11:57:48.811Z,30.06
2018-07-17T12:00:18.629Z,30.05
2018-07-17T12:02:48.413Z,30.11
2018-07-17T12:05:18.319Z,30.14
2018-07-17T12:07:48.160Z,30.09
2018-07-17T12:10:18.017Z,30.05
2018-07-17T12:12:48.104Z,30.25
2018-07-17T12:15:17.916Z,30.44
2018-07-17T12:17:47.848Z,30.60
2018-07-17T12:20:17.718Z,30.55
2018-07-17T12:22:47.590Z,30.73
2018-07-17T12:25:17.451Z,30.83
2018-07-17T12:27:47.377Z,30.97
2018-07-17T12:30:17.191Z,30.82
2018-07-17T12:32:47.052Z,31.03
2018-07-17T12:35:16.786Z,31.09
2018-07-17T12:37:46.572Z,31.10
2018-07-17T12:40:16.411Z,30.81
2018-07-17T12:42:46.331Z,31.30
2018-07-17T12:45:16.284Z,31.43
2018-07-17T12:47:46.088Z,31.55
2018-07-17T12:50:15.979Z,31.59
2018-07-17T12:52:45.806Z,31.51
2018-07-17T12:55:15.608Z,31.62
2018-07-17T12:57:45.525Z,31.64
2018-07-17T13:00:15.387Z,31.54
2018-07-17T13:02:45.332Z,31.61
2018-07-17T13:05:15.175Z,31.94
2018-07-17T13:07:45.092Z,31.79
2018-07-17T13:10:14.865Z,31.58
2018-07-17T13:12:44.651Z,31.82
2018-07-17T13:15:14.455Z,31.82
2018-07-17T13:17:44.278Z,31.68
2018-07-17T13:20:14.215Z,31.54
2018-07-17T13:22:44.061Z,31.73
2018-07-17T13:25:13.904Z,31.85
2018-07-17T13:27:43.777Z,32.07
2018-07-17T13:30:13.611Z,32.19
2018-07-17T13:32:43.451Z,32.24
2018-07-17T13:35:13.364Z,32.20
2018-07-17T13:37:43.213Z,31.89
2018-07-17T13:40:13.070Z,31.76
2018-07-17T13:42:42.885Z,31.85
2018-07-17T13:45:12.762Z,31.82
2018-07-17T13:47:42.494Z,31.61
2018-07-17T13:50:12.393Z,31.63
2018-07-17T13:52:42.329Z,31.32
2018-07-17T13:55:12.305Z,31.39
2018-07-17T13:57:42.172Z,31.37
2018-07-17T14:00:11.905Z,31.19
2018-07-17T14:02:41.795Z,31.06
2018-07-17T14:05:11.623Z,31.05
2018-07-17T14:07:41.499Z,30.88
2018-07-17T14:10:11.319Z,30.81
2018-07-17T14:12:41.204Z,30.51
2018-07-17T14:15:10.571Z,30.51
2018-07-17T14:17:40.369Z,30.46
2018-07-17T14:20:10.152Z,30.38
2018-07-17T14:22:40.101Z,30.27
2018-07-17T14:25:09.908Z,30.25
2018-07-17T14:27:39.739Z,30.20
2018-07-17T14:30:09.593Z,30.13
2018-07-17T14:32:39.393Z,30.10
2018-07-17T14:35:09.290Z,30.08
2018-07-17T14:37:39.063Z,30.22
2018-07-17T14:40:08.989Z,30.31
2018-07-17T14:42:38.896Z,30.39
2018-07-17T14:45:08.908Z,30.59
2018-07-17T14:47:38.717Z,30.62
2018-07-17T14:50:09.130Z,30.73
2018-07-17T14:52:39.024Z,30.79
2018-07-17T14:55:10.212Z,30.84
2018-07-17T14:57:40.689Z,30.81
2018-07-17T15:00:11.201Z,30.98
2018-07-17T15:02:40.980Z,31.14
2018-07-17T15:05:11.143Z,31.18
2018-07-17T15:07:41.003Z,31.15
2018-07-17T15:10:10.788Z,31.30
2018-07-17T15:12:40.579Z,30.77
2018-07-17T15:15:10.399Z,30.68
2018-07-17T15:17:40.156Z,31.30
2018-07-17T15:20:09.960Z,31.33
2018-07-17T15:22:39.807Z,31.33
2018-07-17T15:25:09.573Z,31.18
2018-07-17T15:27:39.334Z,31.17
2018-07-17T15:30:09.201Z,31.13
2018-07-17T15:32:38.952Z,31.17
2018-07-17T15:35:08.767Z,31.09
2018-07-17T15:37:38.465Z,31.08
2018-07-17T15:40:08.313Z,31.02
2018-07-17T15:42:38.123Z,30.96
2018-07-17T15:45:07.964Z,30.94
2018-07-17T15:47:37.716Z,30.80
2018-07-17T15:50:07.544Z,30.80
2018-07-17T15:52:37.347Z,30.58
2018-07-17T15:55:07.067Z,30.52
2018-07-17T15:57:36.876Z,30.23
2018-07-17T16:00:06.928Z,30.12
2018-07-17T16:02:36.699Z,30.14
2018-07-17T16:05:06.529Z,30.25
2018-07-17T16:07:36.414Z,30.09
2018-07-17T16:10:06.210Z,30.11
2018-07-17T16:12:35.939Z,30.24
2018-07-17T16:15:06.672Z,30.40
2018-07-17T16:17:36.675Z,30.46
2018-07-17T16:20:06.930Z,30.44
2018-07-17T16:22:37.026Z,30.44
2018-07-17T16:25:07.026Z,30.46
2018-07-17T16:27:36.783Z,30.48
2018-07-17T16:30:07.333Z,30.49
2018-07-17T16:32:37.103Z,30.46
2018-07-17T16:35:06.867Z,30.42
2018-07-17T16:37:36.639Z,30.37
2018-07-17T16:40:06.415Z,30.33
2018-07-17T16:42:36.171Z,30.25
2018-07-17T16:45:06.079Z,30.17
2018-07-17T16:47:35.899Z,30.12
2018-07-17T16:50:05.906Z,30.12
2018-07-17T16:52:35.646Z,30.08
2018-07-17T16:55:05.785Z,29.95
2018-07-17T16:57:35.595Z,29.90
2018-07-17T17:00:05.768Z,29.80
2018-07-17T17:02:35.584Z,29.68
2018-07-17T17:05:05.435Z,29.45
2018-07-17T17:07:35.246Z,29.31
2018-07-17T17:10:05.085Z,29.26
2018-07-17T17:12:34.817Z,29.24
2018-07-17T17:15:05.093Z,29.16
2018-07-17T17:17:34.949Z,29.16
2018-07-17T17:20:04.825Z,29.12
2018-07-17T17:22:34.635Z,29.05
2018-07-17T17:25:04.367Z,28.95
2018-07-17T17:27:34.182Z,28.94
2018-07-17T17:30:04.083Z,28.70
2018-07-17T17:32:33.992Z,28.65
2018-07-17T17:35:03.797Z,28.59
2018-07-17T17:37:33.574Z,28.45
2018-07-17T17:40:03.391Z,28.29
2018-07-17T17:42:33.095Z,28.29
2018-07-17T17:45:02.986Z,28.20
2018-07-17T17:47:33.007Z,28.09
2018-07-17T17:50:02.787Z,28.11
2018-07-17T17:52:32.515Z,28.08
2018-07-17T17:55:02.267Z,28.05
2018-07-17T17:57:31.979Z,28.01
2018-07-17T18:00:01.784Z,27.91
2018-07-17T18:02:31.518Z,28.00
2018-07-17T18:05:01.292Z,27.98
2018-07-17T18:07:31.031Z,27.86
2018-07-17T18:10:01.032Z,27.79
2018-07-17T18:12:30.752Z,27.78
2018-07-17T18:15:00.515Z,27.81
2018-07-17T18:17:30.280Z,27.79
2018-07-17T18:20:00.056Z,27.73
2018-07-17T18:22:29.851Z,27.71
2018-07-17T18:24:59.671Z,27.52
2018-07-17T18:27:29.377Z,27.63
2018-07-17T18:29:59.147Z,27.66
2018-07-17T18:32:28.919Z,27.67
2018-07-17T18:34:58.723Z,27.58
2018-07-17T18:37:28.538Z,27.63
2018-07-17T18:39:58.388Z,27.63
2018-07-17T18:42:28.175Z,27.60
2018-07-17T18:44:57.979Z,27.62
2018-07-17T18:47:27.848Z,27.60
2018-07-17T18:50:12.312Z,27.56
2018-07-17T18:52:27.480Z,27.57
2018-07-17T18:54:57.202Z,27.53
2018-07-17T18:57:27.021Z,27.56
2018-07-17T18:59:56.901Z,27.56
2018-07-17T19:02:26.667Z,27.53
2018-07-17T19:04:56.363Z,27.51
2018-07-17T19:07:26.172Z,27.48
2018-07-17T19:09:55.875Z,27.46
2018-07-17T19:12:25.626Z,27.37
2018-07-17T19:14:55.471Z,27.42
2018-07-17T19:17:25.315Z,27.36
2018-07-17T19:19:55.124Z,27.36
2018-07-17T19:22:24.887Z,27.24
2018-07-17T19:24:54.680Z,27.21
2018-07-17T19:27:24.497Z,27.11
2018-07-17T19:29:54.251Z,27.12
2018-07-17T19:32:24.092Z,27.01
2018-07-17T19:34:53.835Z,27.02
2018-07-17T19:37:23.643Z,26.95
2018-07-17T19:39:53.404Z,26.98
2018-07-17T19:42:23.189Z,26.85
2018-07-17T19:44:52.934Z,26.80
2018-07-17T19:47:22.778Z,26.86
2018-07-17T19:49:52.576Z,26.88
2018-07-17T19:52:22.331Z,26.92
2018-07-17T19:54:52.119Z,26.87
2018-07-17T19:57:21.871Z,26.83
2018-07-17T19:59:51.638Z,26.76
2018-07-17T20:02:21.395Z,26.75
2018-07-17T20:04:51.185Z,26.69
2018-07-17T20:07:20.935Z,26.71
2018-07-17T20:09:50.671Z,26.66
2018-07-17T20:12:20.487Z,26.61
2018-07-17T20:14:50.195Z,26.46
2018-07-17T20:17:19.992Z,26.41
2018-07-17T20:19:49.703Z,26.29
2018-07-17T20:22:19.504Z,26.28
2018-07-17T20:24:49.328Z,26.24
2018-07-17T20:27:19.176Z,26.18
2018-07-17T20:29:49.000Z,26.26
2018-07-17T20:32:18.865Z,26.25
2018-07-17T20:34:48.687Z,26.15
2018-07-17T20:37:18.435Z,26.20
2018-07-17T20:39:48.190Z,26.15
2018-07-17T20:42:17.999Z,26.12
2018-07-17T20:44:47.747Z,26.09
2018-07-17T20:47:17.464Z,26.10
2018-07-17T20:49:47.363Z,26.06
2018-07-17T20:52:17.224Z,26.06
2018-07-17T20:54:46.984Z,26.02
2018-07-17T20:57:16.729Z,25.91
2018-07-17T20:59:46.459Z,25.89
2018-07-17T21:02:16.227Z,25.85
2018-07-17T21:04:45.981Z,25.81
2018-07-17T21:07:15.763Z,25.80
2018-07-17T21:09:45.521Z,25.83
2018-07-17T21:12:15.330Z,25.75
2018-07-17T21:14:45.160Z,25.76
2018-07-17T21:17:14.907Z,25.74
2018-07-17T21:19:44.695Z,25.82
2018-07-17T21:22:14.552Z,25.83
2018-07-17T21:24:44.444Z,25.71
2018-07-17T21:27:14.168Z,25.75
2018-07-17T21:29:43.931Z,25.83
2018-07-17T21:32:13.723Z,25.82
2018-07-17T21:34:43.531Z,25.78
2018-07-17T21:37:13.262Z,25.75
2018-07-17T21:39:43.285Z,25.75
2018-07-17T21:42:13.039Z,25.78
2018-07-17T21:44:42.937Z,25.82
2018-07-17T21:47:12.861Z,25.78
2018-07-17T21:49:42.631Z,25.75
2018-07-17T21:52:12.374Z,25.71
2018-07-17T21:54:42.083Z,25.66
2018-07-17T21:57:11.835Z,25.61
2018-07-17T21:59:41.644Z,25.75
2018-07-17T22:02:11.499Z,25.73
2018-07-17T22:04:41.312Z,25.73
2018-07-17T22:07:11.024Z,25.72
2018-07-17T22:09:40.850Z,25.65
2018-07-17T22:12:10.596Z,25.64
2018-07-17T22:14:40.316Z,25.55
2018-07-17T22:17:10.147Z,25.59
2018-07-17T22:19:39.979Z,25.56
2018-07-17T22:22:09.704Z,25.55
2018-07-17T22:24:39.443Z,25.55
2018-07-17T22:27:09.143Z,25.55
2018-07-17T22:29:39.009Z,25.48
2018-07-17T22:32:08.752Z,25.49
2018-07-17T22:34:38.518Z,25.41
2018-07-17T22:37:08.306Z,25.46
2018-07-17T22:39:38.076Z,25.48
2018-07-17T22:42:08.040Z,25.43
2018-07-17T22:44:37.743Z,25.47
2018-07-17T22:47:07.499Z,25.37
2018-07-17T22:49:37.291Z,25.39
2018-07-17T22:52:07.117Z,25.39
2018-07-17T22:54:36.920Z,25.34
2018-07-17T22:57:06.667Z,25.28
2018-07-17T22:59:36.484Z,25.33
2018-07-17T23:02:06.365Z,25.25
2018-07-17T23:04:36.124Z,25.22
2018-07-17T23:07:05.923Z,25.25
2018-07-17T23:09:35.727Z,25.29
2018-07-17T23:12:05.467Z,25.34
2018-07-17T23:14:35.307Z,25.35
2018-07-17T23:17:05.024Z,25.25
2018-07-17T23:19:34.806Z,25.18
2018-07-17T23:22:04.588Z,25.09
2018-07-17T23:24:34.299Z,25.01
2018-07-17T23:27:04.124Z,24.97
2018-07-17T23:29:33.914Z,24.97
2018-07-17T23:32:03.748Z,24.97
2018-07-17T23:34:33.487Z,25.01
2018-07-17T23:37:03.233Z,24.91
2018-07-17T23:39:32.957Z,24.88
2018-07-17T23:42:02.723Z,24.97
2018-07-17T23:44:32.724Z,24.89
2018-07-17T23:47:02.488Z,24.87
2018-07-17T23:49:39.252Z,24.90
2018-07-17T23:52:09.184Z,24.91
2018-07-17T23:54:38.904Z,24.81
2018-07-17T23:57:08.744Z,24.86
2018-07-17T23:59:38.588Z,24.79
